Time;durP1;ratioP1;P1;durP2;ratioP2;P2;SDS_P1;SDS_P2;PMS_P1;PMS_P2;Temp;Humidity;BMP_temperature;BMP_pressure;BME280_temperature;BME280_humidity;BME280_pressure;Samples;Min_cycle;Max_cycle;Signal;HPM_P1;HPM_P2
2021/01/10 00:02:16;;;;;;;24.80;10.10;;;4.60;99.90;;;;;;5009485;28;20208;-77
2021/01/10 00:04:42;;;;;;;21.00;9.23;;;4.70;99.90;;;;;;5011587;28;20567;-78
2021/01/10 00:07:09;;;;;;;27.42;11.88;;;4.70;99.90;;;;;;5012513;28;20211;-77
2021/01/10 00:09:36;;;;;;;37.33;15.10;;;4.70;99.90;;;;;;5011753;28;20228;-77
2021/01/10 00:12:02;;;;;;;31.92;14.77;;;4.70;99.90;;;;;;5012524;28;20200;-77
2021/01/10 00:14:28;;;;;;;30.52;12.82;;;4.70;99.90;;;;;;5009361;28;20204;-77
2021/01/10 00:16:55;;;;;;;26.10;10.98;;;4.70;99.90;;;;;;5013829;28;20204;-77
2021/01/10 00:19:21;;;;;;;23.20;11.05;;;4.70;99.90;;;;;;5011704;28;20200;-77
2021/01/10 00:21:47;;;;;;;28.98;12.07;;;4.70;99.90;;;;;;5012587;28;20199;-78
2021/01/10 00:24:15;;;;;;;23.45;10.93;;;4.70;99.90;;;;;;5010607;28;20236;-78
2021/01/10 00:26:41;;;;;;;23.60;10.95;;;4.70;99.90;;;;;;5012273;28;20201;-77
2021/01/10 00:29:08;;;;;;;21.05;10.27;;;4.70;99.90;;;;;;5009768;28;20689;-77
2021/01/10 00:31:36;;;;;;;19.92;9.18;;;4.70;99.90;;;;;;5010054;28;20219;-79
2021/01/10 00:34:03;;;;;;;24.45;10.20;;;4.70;99.90;;;;;;5011575;28;20197;-77
2021/01/10 00:36:34;;;;;;;19.25;8.23;;;4.70;99.90;;;;;;5011343;28;20239;-78
2021/01/10 00:39:00;;;;;;;18.77;8.82;;;4.60;99.90;;;;;;5011432;28;20617;-77
2021/01/10 00:41:28;;;;;;;21.95;8.88;;;4.60;99.90;;;;;;5011812;28;20212;-78
2021/01/10 00:43:54;;;;;;;16.25;8.10;;;4.60;99.90;;;;;;5012042;28;20562;-77
2021/01/10 00:46:20;;;;;;;17.63;6.35;;;4.60;99.90;;;;;;5010591;28;20201;-78
2021/01/10 00:48:47;;;;;;;15.40;7.60;;;4.50;99.90;;;;;;5012005;28;20300;-77
2021/01/10 00:51:14;;;;;;;16.98;8.02;;;4.50;99.90;;;;;;5004013;28;20228;-78
2021/01/10 00:53:41;;;;;;;20.08;8.68;;;4.50;99.90;;;;;;5012251;28;20211;-77
2021/01/10 00:56:09;;;;;;;19.13;8.13;;;4.50;99.90;;;;;;5010643;28;20251;-78
2021/01/10 00:58:36;;;;;;;17.40;8.55;;;4.50;99.90;;;;;;5011002;28;20286;-77
2021/01/10 01:01:04;;;;;;;34.70;14.00;;;4.50;99.90;;;;;;5008838;28;20211;-78
2021/01/10 01:03:31;;;;;;;27.65;12.52;;;4.50;99.90;;;;;;5027034;28;20197;-78
2021/01/10 01:05:58;;;;;;;30.08;15.48;;;4.50;99.90;;;;;;5025558;28;20203;-78
2021/01/10 01:08:25;;;;;;;32.22;13.90;;;4.50;99.90;;;;;;5010033;28;20201;-78
2021/01/10 01:10:52;;;;;;;19.55;10.25;;;4.50;99.90;;;;;;5010502;28;20215;-78
2021/01/10 01:13:19;;;;;;;21.85;5.57;;;4.50;99.90;;;;;;5026995;28;20200;-78
2021/01/10 01:15:50;;;;;;;16.08;4.80;;;4.50;99.90;;;;;;5009318;28;20204;-78
2021/01/10 01:18:18;;;;;;;9.10;3.88;;;4.60;99.90;;;;;;5010507;28;20201;-78
2021/01/10 01:20:44;;;;;;;12.18;3.90;;;4.70;99.90;;;;;;5008812;28;20213;-79
2021/01/10 01:23:11;;;;;;;16.90;3.42;;;4.70;99.90;;;;;;5010666;28;20208;-78
2021/01/10 01:25:37;;;;;;;12.27;3.45;;;4.80;99.90;;;;;;5009792;28;20216;-77
2021/01/10 01:28:04;;;;;;;15.00;2.83;;;4.90;99.90;;;;;;5010244;28;20692;-78
2021/01/10 01:30:31;;;;;;;7.45;2.80;;;4.90;99.90;;;;;;5008497;28;20223;-78
2021/01/10 01:32:58;;;;;;;10.48;3.08;;;5.00;99.90;;;;;;5009989;28;20661;-78
2021/01/10 01:35:25;;;;;;;10.63;2.60;;;5.00;99.90;;;;;;5009802;28;20239;-78
2021/01/10 01:37:51;;;;;;;7.75;2.30;;;5.10;99.90;;;;;;5010201;28;20259;-78
2021/01/10 01:40:18;;;;;;;7.15;2.10;;;5.10;99.90;;;;;;5009736;28;20192;-78
2021/01/10 01:42:45;;;;;;;9.38;2.50;;;5.20;99.90;;;;;;5010166;28;20200;-77
2021/01/10 01:45:12;;;;;;;12.63;1.95;;;5.20;99.90;;;;;;5009796;28;20287;-77
2021/01/10 01:47:39;;;;;;;7.53;1.90;;;5.20;99.90;;;;;;5009528;28;20223;-77
2021/01/10 01:50:08;;;;;;;9.07;2.20;;;5.20;99.90;;;;;;5011114;28;20579;-77
2021/01/10 01:52:34;;;;;;;9.13;2.10;;;5.20;99.90;;;;;;5009398;28;20204;-78
2021/01/10 01:55:01;;;;;;;10.23;1.80;;;5.20;99.90;;;;;;5011065;28;20208;-78
2021/01/10 01:57:27;;;;;;;6.78;1.90;;;5.30;99.90;;;;;;5025075;28;20215;-77
2021/01/10 01:59:53;;;;;;;9.27;1.80;;;5.20;99.90;;;;;;5011243;28;20200;-77
2021/01/10 02:02:20;;;;;;;9.40;1.88;;;5.20;99.90;;;;;;5008315;28;20673;-77
2021/01/10 02:04:50;;;;;;;9.55;1.95;;;5.20;99.90;;;;;;5004352;28;20404;-77
2021/01/10 02:07:24;;;;;;;13.63;1.98;;;5.20;99.90;;;;;;5008286;28;20629;-78
2021/01/10 02:09:56;;;;;;;3.10;1.30;;;5.20;99.90;;;;;;5007468;28;20223;-78
2021/01/10 02:12:24;;;;;;;10.00;1.60;;;5.30;99.90;;;;;;5008579;28;20227;-78
2021/01/10 02:14:54;;;;;;;11.90;1.67;;;5.30;99.90;;;;;;5010730;28;20596;-78
2021/01/10 02:17:21;;;;;;;10.55;1.40;;;5.30;99.90;;;;;;5009680;28;20197;-78
2021/01/10 02:19:59;;;;;;;8.98;1.63;;;5.20;99.90;;;;;;5010610;28;20369;-77
2021/01/10 02:22:32;;;;;;;13.88;1.45;;;5.20;99.90;;;;;;5009429;28;20207;-78
2021/01/10 02:25:00;;;;;;;8.10;1.33;;;5.30;99.90;;;;;;5009259;28;20204;-77
2021/01/10 02:27:27;;;;;;;4.78;1.40;;;5.30;99.90;;;;;;5007775;28;20208;-77
2021/01/10 02:29:54;;;;;;;4.50;1.58;;;5.30;99.90;;;;;;5010405;28;22368;-78
2021/01/10 02:32:23;;;;;;;6.68;1.27;;;5.30;99.90;;;;;;5006755;28;20208;-77
2021/01/10 02:34:52;;;;;;;8.65;1.60;;;5.30;99.90;;;;;;5008950;28;20258;-77
2021/01/10 02:37:36;;;;;;;7.85;1.38;;;5.30;99.90;;;;;;5010349;28;20600;-77
2021/01/10 02:40:10;;;;;;;13.05;1.80;;;5.30;99.90;;;;;;5013640;28;20203;-77
2021/01/10 02:42:42;;;;;;;6.80;1.38;;;5.30;99.90;;;;;;5013680;28;20207;-78
2021/01/10 02:45:14;;;;;;;9.80;1.40;;;5.30;99.90;;;;;;5012177;28;20728;-77
2021/01/10 02:47:40;;;;;;;8.25;1.20;;;5.30;99.90;;;;;;5012046;28;20204;-77
2021/01/10 02:50:08;;;;;;;6.25;1.35;;;5.30;99.90;;;;;;5014159;28;20540;-77
2021/01/10 02:52:35;;;;;;;8.00;1.60;;;5.30;99.90;;;;;;5011442;28;20208;-77
2021/01/10 02:55:02;;;;;;;3.92;1.35;;;5.30;99.90;;;;;;5014061;28;20192;-77
2021/01/10 02:57:35;;;;;;;8.45;1.17;;;5.30;99.90;;;;;;5012157;28;20203;-77
2021/01/10 03:00:04;;;;;;;7.88;1.30;;;5.30;99.90;;;;;;4996670;28;20560;-77
2021/01/10 03:02:30;;;;;;;8.35;1.42;;;5.30;99.90;;;;;;5013226;28;20208;-78
2021/01/10 03:04:57;;;;;;;6.78;1.20;;;5.30;99.90;;;;;;5012618;28;20200;-77
2021/01/10 03:07:24;;;;;;;8.10;1.27;;;5.30;99.90;;;;;;5012561;28;20200;-77
2021/01/10 03:09:51;;;;;;;7.13;1.25;;;5.30;99.90;;;;;;5013916;28;20248;-77
2021/01/10 03:12:25;;;;;;;8.25;1.35;;;5.30;99.90;;;;;;5011204;28;20251;-78
2021/01/10 03:14:53;;;;;;;5.70;1.20;;;5.30;99.90;;;;;;5013284;28;20236;-77
2021/01/10 03:17:28;;;;;;;3.78;1.10;;;5.30;99.90;;;;;;5011044;28;20657;-78
2021/01/10 03:19:54;;;;;;;9.05;1.38;;;5.30;99.90;;;;;;5013763;28;20193;-77
2021/01/10 03:22:21;;;;;;;6.03;1.20;;;5.30;99.90;;;;;;5012578;28;20197;-77
2021/01/10 03:24:47;;;;;;;8.23;1.38;;;5.30;99.90;;;;;;5011361;28;20211;-77
2021/01/10 03:27:14;;;;;;;6.60;1.55;;;5.30;99.90;;;;;;5012335;28;20216;-77
2021/01/10 03:29:40;;;;;;;6.60;1.42;;;5.30;99.90;;;;;;5013616;28;20212;-77
2021/01/10 03:32:07;;;;;;;7.28;1.40;;;5.30;99.90;;;;;;5012247;28;20207;-76
2021/01/10 03:34:34;;;;;;;8.38;1.40;;;5.30;99.90;;;;;;5013075;28;20201;-78
2021/01/10 03:37:00;;;;;;;9.05;1.27;;;5.30;99.90;;;;;;5012075;28;20319;-77
2021/01/10 03:39:27;;;;;;;5.32;1.23;;;5.30;99.90;;;;;;5012823;28;20570;-78
2021/01/10 03:41:53;;;;;;;6.65;1.27;;;5.30;99.90;;;;;;5009302;28;20225;-78
2021/01/10 03:44:19;;;;;;;7.03;1.25;;;5.30;99.90;;;;;;5011378;28;20727;-77
2021/01/10 03:46:46;;;;;;;5.38;1.30;;;5.30;99.90;;;;;;5011057;28;20204;-77
2021/01/10 03:49:13;;;;;;;7.68;1.20;;;5.30;99.90;;;;;;5012970;28;20250;-77
2021/01/10 03:51:40;;;;;;;2.45;0.93;;;5.30;99.90;;;;;;5011901;28;20653;-77
2021/01/10 03:54:06;;;;;;;4.07;1.25;;;5.30;99.90;;;;;;5012874;28;20219;-76
2021/01/10 03:56:33;;;;;;;5.28;1.00;;;5.30;99.90;;;;;;5012037;28;20215;-77
2021/01/10 03:58:59;;;;;;;7.95;1.02;;;5.30;99.90;;;;;;5012776;28;20197;-76
2021/01/10 04:01:25;;;;;;;8.15;1.40;;;5.30;99.90;;;;;;5005692;28;20212;-77
2021/01/10 04:03:52;;;;;;;8.23;1.33;;;5.30;99.90;;;;;;5013431;28;20672;-78
2021/01/10 04:06:19;;;;;;;4.63;1.15;;;5.30;99.90;;;;;;5009026;28;20213;-78
2021/01/10 04:08:47;;;;;;;10.15;1.60;;;5.30;99.90;;;;;;5008723;28;20669;-77
2021/01/10 04:11:13;;;;;;;4.57;1.20;;;5.30;99.90;;;;;;5007807;28;20515;-77
2021/01/10 04:13:39;;;;;;;10.25;1.35;;;5.30;99.90;;;;;;5008874;28;20696;-77
2021/01/10 04:16:06;;;;;;;8.05;1.30;;;5.30;99.90;;;;;;5009814;28;20205;-77
2021/01/10 04:18:33;;;;;;;4.47;0.98;;;5.30;99.90;;;;;;5012635;28;20192;-77
2021/01/10 04:21:01;;;;;;;3.72;1.10;;;5.30;99.90;;;;;;5010819;28;20256;-78
2021/01/10 04:23:28;;;;;;;6.93;1.20;;;5.40;99.90;;;;;;5012769;28;20208;-77
2021/01/10 04:25:55;;;;;;;6.95;1.38;;;5.40;99.90;;;;;;5009489;28;20666;-76
2021/01/10 04:28:22;;;;;;;11.32;2.30;;;5.40;99.90;;;;;;5012672;28;20223;-76
2021/01/10 04:30:48;;;;;;;8.95;1.70;;;5.40;99.90;;;;;;5010677;28;22818;-76
2021/01/10 04:33:15;;;;;;;6.05;1.25;;;5.50;99.90;;;;;;5011333;28;20236;-76
2021/01/10 04:35:41;;;;;;;6.57;1.30;;;5.50;99.90;;;;;;5009527;28;20561;-76
2021/01/10 04:38:08;;;;;;;7.32;1.00;;;5.50;99.90;;;;;;5011398;28;20200;-78
2021/01/10 04:40:35;;;;;;;6.13;1.17;;;5.50;99.90;;;;;;5010057;28;20251;-77
2021/01/10 04:43:01;;;;;;;5.07;1.40;;;5.50;99.90;;;;;;5011582;28;20205;-77
2021/01/10 04:45:28;;;;;;;6.82;1.10;;;5.50;99.90;;;;;;5012122;28;20569;-77
2021/01/10 04:47:55;;;;;;;5.13;1.05;;;5.50;99.90;;;;;;5010102;28;20224;-78
2021/01/10 04:50:22;;;;;;;2.65;0.90;;;5.60;99.90;;;;;;5011606;28;20308;-78
2021/01/10 04:52:54;;;;;;;6.30;1.30;;;5.50;99.90;;;;;;5010701;28;20262;-77
2021/01/10 04:55:20;;;;;;;7.45;1.67;;;5.60;99.90;;;;;;5009516;28;20208;-77
2021/01/10 04:57:50;;;;;;;5.55;1.33;;;5.50;99.90;;;;;;5010729;28;20578;-77
2021/01/10 05:00:18;;;;;;;7.65;1.25;;;5.50;99.90;;;;;;5010424;28;20229;-77
2021/01/10 05:03:02;;;;;;;6.82;1.10;;;5.60;99.90;;;;;;5009804;28;20219;-76
2021/01/10 05:05:29;;;;;;;8.07;1.50;;;5.50;99.90;;;;;;5010971;28;20242;-77
2021/01/10 05:07:58;;;;;;;8.10;1.42;;;5.60;99.90;;;;;;5011807;28;20193;-76
2021/01/10 05:10:24;;;;;;;9.18;1.50;;;5.50;99.90;;;;;;5009900;28;20235;-77
2021/01/10 05:12:51;;;;;;;13.23;1.50;;;5.50;99.90;;;;;;5006581;28;20216;-77
2021/01/10 05:15:18;;;;;;;8.00;1.60;;;5.50;99.90;;;;;;5007310;28;20251;-76
2021/01/10 05:17:55;;;;;;;9.50;1.42;;;5.50;99.90;;;;;;5011746;28;20197;-77
2021/01/10 05:20:21;;;;;;;7.45;1.35;;;5.60;99.90;;;;;;5010595;28;20193;-76
2021/01/10 05:22:50;;;;;;;3.95;1.27;;;5.60;99.90;;;;;;5011442;28;20192;-77
2021/01/10 05:25:18;;;;;;;11.32;1.50;;;5.60;99.90;;;;;;5007663;28;20208;-77
2021/01/10 05:27:48;;;;;;;7.25;1.30;;;5.60;99.90;;;;;;5010127;28;20189;-76
2021/01/10 05:30:25;;;;;;;5.72;1.20;;;5.60;99.90;;;;;;5010499;28;20216;-78
2021/01/10 05:32:59;;;;;;;4.78;1.15;;;5.60;99.90;;;;;;5025437;28;20200;-77
2021/01/10 05:35:25;;;;;;;8.65;1.35;;;5.60;99.90;;;;;;5009693;28;20283;-78
2021/01/10 05:37:58;;;;;;;5.25;1.13;;;5.60;99.80;;;;;;5009843;28;20208;-77
2021/01/10 05:40:30;;;;;;;6.65;1.17;;;5.60;99.80;;;;;;5007054;28;20207;-77
2021/01/10 05:43:05;;;;;;;11.98;1.50;;;5.60;99.70;;;;;;5010174;28;20587;-77
2021/01/10 05:45:37;;;;;;;6.10;1.30;;;5.60;99.60;;;;;;5009787;28;20200;-76
2021/01/10 05:48:14;;;;;;;4.38;1.20;;;5.60;99.60;;;;;;5011376;28;20653;-77
2021/01/10 05:50:43;;;;;;;9.18;1.23;;;5.60;99.60;;;;;;5006634;28;20231;-78
2021/01/10 05:53:17;;;;;;;6.70;1.30;;;5.60;99.60;;;;;;5010750;28;20204;-77
2021/01/10 05:56:00;;;;;;;9.50;1.40;;;5.50;99.50;;;;;;5023231;28;20286;-78
2021/01/10 05:58:28;;;;;;;8.30;1.40;;;5.50;99.50;;;;;;5011999;28;20204;-77
2021/01/10 06:00:57;;;;;;;11.15;1.33;;;5.50;99.50;;;;;;5002490;28;20654;-76
2021/01/10 06:03:26;;;;;;;8.77;1.35;;;5.50;99.50;;;;;;5010265;28;20226;-76
2021/01/10 06:05:54;;;;;;;5.85;1.10;;;5.50;99.50;;;;;;5006041;28;20580;-77
2021/01/10 06:08:32;;;;;;;2.65;1.00;;;5.50;99.40;;;;;;5012406;28;20289;-76
2021/01/10 06:11:22;;;;;;;7.43;1.38;;;5.50;99.40;;;;;;5007497;28;20275;-77
2021/01/10 06:13:54;;;;;;;9.30;1.40;;;5.50;99.30;;;;;;5007844;28;20204;-78
2021/01/10 06:16:23;;;;;;;5.10;1.20;;;5.50;99.20;;;;;;5009794;28;20208;-77
2021/01/10 06:18:52;;;;;;;8.98;1.27;;;5.60;99.20;;;;;;5010094;28;20216;-77
2021/01/10 06:21:20;;;;;;;11.65;1.40;;;5.60;99.20;;;;;;5009390;28;20276;-77
2021/01/10 06:23:57;;;;;;;12.60;1.73;;;5.60;99.10;;;;;;5003176;28;20259;-76
2021/01/10 06:26:24;;;;;;;12.32;2.03;;;5.60;99.10;;;;;;5007072;28;20208;-77
2021/01/10 06:28:54;;;;;;;7.68;2.40;;;5.60;99.10;;;;;;5010182;28;20197;-78
2021/01/10 06:31:25;;;;;;;12.00;2.97;;;5.60;99.10;;;;;;5007026;28;20334;-80
2021/01/10 06:33:57;;;;;;;11.85;3.80;;;5.60;99.10;;;;;;5009922;28;20204;-77
2021/01/10 06:36:24;;;;;;;12.52;4.32;;;5.60;99.10;;;;;;5008829;28;20220;-77
2021/01/10 06:38:58;;;;;;;11.95;4.55;;;5.50;99.20;;;;;;5009991;28;20193;-79
2021/01/10 06:41:50;;;;;;;11.75;4.85;;;5.50;99.30;;;;;;5010075;28;20200;-78
2021/01/10 06:44:20;;;;;;;12.90;6.15;;;5.50;99.30;;;;;;5008377;28;20230;-79
2021/01/10 06:46:50;;;;;;;20.98;6.35;;;5.50;99.40;;;;;;5010207;28;20193;-77
2021/01/10 06:49:17;;;;;;;11.60;5.60;;;5.50;99.50;;;;;;5006472;28;20200;-79
2021/01/10 06:51:45;;;;;;;12.70;6.07;;;5.40;99.60;;;;;;5009804;28;20294;-78
2021/01/10 06:54:12;;;;;;;13.90;6.18;;;5.40;99.70;;;;;;5003175;28;20570;-80
2021/01/10 06:56:46;;;;;;;14.85;5.85;;;5.40;99.80;;;;;;5009705;28;20208;-78
2021/01/10 06:59:15;;;;;;;15.85;6.10;;;5.30;99.80;;;;;;5009453;28;20215;-79
2021/01/10 07:01:59;;;;;;;12.73;5.95;;;5.30;99.90;;;;;;5010568;28;20189;-79
2021/01/10 07:04:54;;;;;;;11.10;5.68;;;5.30;99.90;;;;;;5009083;28;20219;-78
2021/01/10 07:07:35;;;;;;;16.05;6.25;;;5.30;99.90;;;;;;5008383;28;20253;-79
2021/01/10 07:10:03;;;;;;;14.85;6.30;;;5.30;99.90;;;;;;5021115;28;20231;-79
2021/01/10 07:12:29;;;;;;;11.93;5.97;;;5.30;99.90;;;;;;5007847;28;20209;-78
2021/01/10 07:15:29;;;;;;;14.82;5.57;;;5.30;99.90;;;;;;5008125;28;20212;-77
2021/01/10 07:18:10;;;;;;;12.27;5.70;;;5.30;99.90;;;;;;5010316;28;20200;-78
2021/01/10 07:20:42;;;;;;;14.73;6.40;;;5.30;99.90;;;;;;5006595;28;20208;-77
2021/01/10 07:23:31;;;;;;;14.77;5.47;;;5.30;99.90;;;;;;5029266;28;20208;-78
2021/01/10 07:26:01;;;;;;;14.38;6.13;;;5.30;99.90;;;;;;5019015;28;20208;-76
2021/01/10 07:28:42;;;;;;;18.25;6.05;;;5.30;99.90;;;;;;5014775;28;20247;-78
2021/01/10 07:31:15;;;;;;;13.93;6.07;;;5.30;99.90;;;;;;5015207;28;20247;-78
2021/01/10 07:33:42;;;;;;;12.40;6.25;;;5.30;99.90;;;;;;5018233;28;20838;-77
2021/01/10 07:36:09;;;;;;;13.35;5.30;;;5.30;99.90;;;;;;5018587;28;20255;-77
2021/01/10 07:38:36;;;;;;;10.88;5.50;;;5.30;99.90;;;;;;5014184;28;20192;-78
2021/01/10 07:41:23;;;;;;;16.48;5.65;;;5.30;99.90;;;;;;5012694;28;20211;-77
2021/01/10 07:43:51;;;;;;;12.95;5.40;;;5.20;99.90;;;;;;5011316;28;20201;-76
2021/01/10 07:47:01;;;;;;;15.55;6.18;;;5.30;99.90;;;;;;5011579;28;20213;-77
2021/01/10 07:49:48;;;;;;;16.00;5.28;;;5.20;99.90;;;;;;5011432;28;20665;-79
2021/01/10 07:52:15;;;;;;;10.60;5.15;;;5.20;99.90;;;;;;5012937;28;20184;-78
2021/01/10 07:54:53;;;;;;;12.27;5.57;;;5.20;99.90;;;;;;5012863;28;20270;-77
2021/01/10 07:57:23;;;;;;;13.02;5.55;;;5.20;99.90;;;;;;5012810;28;20196;-78
2021/01/10 08:00:14;;;;;;;13.73;6.10;;;5.20;99.90;;;;;;5011325;28;20564;-78
2021/01/10 08:02:56;;;;;;;13.55;5.80;;;5.20;99.90;;;;;;5012625;28;20291;-77
2021/01/10 08:05:32;;;;;;;16.08;5.32;;;5.20;99.90;;;;;;5012295;28;20940;-76
2021/01/10 08:08:17;;;;;;;16.05;5.43;;;5.20;99.90;;;;;;5011925;28;20215;-76
2021/01/10 08:10:45;;;;;;;10.85;5.10;;;5.10;99.90;;;;;;5011902;28;20216;-77
2021/01/10 08:13:29;;;;;;;9.20;4.80;;;5.20;99.90;;;;;;5010964;28;20196;-77
2021/01/10 08:15:56;;;;;;;11.02;5.40;;;5.20;99.90;;;;;;5012554;28;20200;-77
2021/01/10 08:18:24;;;;;;;12.45;5.30;;;5.20;99.90;;;;;;5012574;28;20200;-77
2021/01/10 08:20:51;;;;;;;12.07;5.10;;;5.10;99.90;;;;;;5012871;28;20196;-76
2021/01/10 08:23:18;;;;;;;12.48;5.57;;;5.10;99.90;;;;;;5011206;28;20193;-76
2021/01/10 08:25:45;;;;;;;8.73;4.55;;;5.20;99.90;;;;;;5012929;28;20219;-78
2021/01/10 08:28:12;;;;;;;11.73;5.25;;;5.10;99.90;;;;;;5013034;28;20251;-77
2021/01/10 08:30:38;;;;;;;11.77;5.60;;;5.10;99.90;;;;;;5011664;28;20222;-76
2021/01/10 08:33:05;;;;;;;10.85;4.65;;;5.20;99.90;;;;;;5008052;28;20212;-77
2021/01/10 08:35:31;;;;;;;10.30;4.70;;;5.20;99.90;;;;;;5009821;28;20211;-77
2021/01/10 08:37:59;;;;;;;19.17;5.35;;;5.20;99.90;;;;;;5014606;28;20732;-78
2021/01/10 08:40:25;;;;;;;12.00;4.75;;;5.20;99.90;;;;;;5028329;28;20276;-78
2021/01/10 08:43:01;;;;;;;10.88;5.20;;;5.30;99.90;;;;;;5010871;28;20742;-78
2021/01/10 08:45:28;;;;;;;11.13;4.93;;;5.30;99.90;;;;;;5011814;28;20262;-78
2021/01/10 08:47:54;;;;;;;9.63;4.50;;;5.30;99.90;;;;;;5011930;28;21010;-77
2021/01/10 08:50:22;;;;;;;10.60;4.63;;;5.30;99.90;;;;;;5011026;28;20216;-76
2021/01/10 08:52:56;;;;;;;10.38;4.90;;;5.30;99.90;;;;;;5011655;28;20205;-78
2021/01/10 08:55:37;;;;;;;12.20;4.75;;;5.40;99.90;;;;;;5011295;28;20204;-78
2021/01/10 08:58:05;;;;;;;10.52;4.60;;;5.30;99.90;;;;;;5012419;28;20203;-77
2021/01/10 09:00:32;;;;;;;6.30;4.07;;;5.40;99.90;;;;;;5009669;28;20205;-76
2021/01/10 09:03:13;;;;;;;8.35;4.78;;;5.40;99.90;;;;;;5011033;28;20254;-77
2021/01/10 09:05:40;;;;;;;13.07;5.30;;;5.40;99.90;;;;;;5009100;28;20212;-77
2021/01/10 09:08:11;;;;;;;9.95;4.70;;;5.40;99.90;;;;;;5010287;28;20205;-77
2021/01/10 09:10:51;;;;;;;8.32;5.18;;;5.50;99.90;;;;;;5005405;28;20672;-77
2021/01/10 09:13:21;;;;;;;11.23;5.28;;;5.50;99.90;;;;;;5008892;28;20200;-77
2021/01/10 09:15:53;;;;;;;11.02;5.35;;;5.50;99.90;;;;;;5009314;28;20540;-77
2021/01/10 09:18:21;;;;;;;12.48;5.15;;;5.60;99.90;;;;;;5011487;28;20287;-77
2021/01/10 09:20:52;;;;;;;10.15;5.32;;;5.60;99.90;;;;;;5009818;28;20223;-78
2021/01/10 09:23:20;;;;;;;11.60;5.95;;;5.70;99.90;;;;;;5004821;28;20212;-77
2021/01/10 09:25:47;;;;;;;10.27;5.50;;;5.80;99.90;;;;;;5009881;28;20220;-75
2021/01/10 09:28:16;;;;;;;18.50;5.43;;;5.80;99.90;;;;;;5009772;28;20208;-76
2021/01/10 09:30:44;;;;;;;12.30;5.80;;;5.90;99.90;;;;;;5008438;28;20235;-77
2021/01/10 09:33:11;;;;;;;13.45;5.00;;;5.90;99.90;;;;;;5010645;28;20204;-76
2021/01/10 09:35:42;;;;;;;15.05;5.15;;;5.90;99.90;;;;;;5009245;28;20259;-79
2021/01/10 09:38:13;;;;;;;11.18;5.10;;;6.00;99.90;;;;;;5011208;28;20204;-79
2021/01/10 09:40:54;;;;;;;9.55;5.22;;;6.00;99.90;;;;;;5008581;28;20688;-76
2021/01/10 09:43:34;;;;;;;11.20;4.93;;;6.00;99.90;;;;;;5009216;28;20204;-78
2021/01/10 09:46:01;;;;;;;10.52;5.45;;;6.00;99.90;;;;;;5009146;28;20207;-84
2021/01/10 09:48:27;;;;;;;12.75;5.22;;;6.00;99.90;;;;;;5010088;28;20212;-77
2021/01/10 09:50:54;;;;;;;10.45;5.07;;;6.00;99.90;;;;;;5010000;28;20204;-78
2021/01/10 09:53:24;;;;;;;10.77;5.20;;;6.00;99.90;;;;;;5014614;28;20322;-77
2021/01/10 09:55:51;;;;;;;12.80;5.47;;;6.10;99.80;;;;;;5010354;28;20287;-78
2021/01/10 09:58:17;;;;;;;13.13;5.20;;;6.10;99.80;;;;;;5008899;28;20728;-77
2021/01/10 10:00:57;;;;;;;8.88;5.78;;;6.20;99.70;;;;;;5009936;28;20960;-77
2021/01/10 10:03:24;;;;;;;11.48;6.22;;;6.20;99.50;;;;;;5007821;28;20300;-76
2021/01/10 10:05:57;;;;;;;12.13;5.53;;;6.20;99.40;;;;;;5009928;28;20669;-77
2021/01/10 10:08:23;;;;;;;9.93;5.22;;;6.30;99.40;;;;;;5009724;28;20204;-78
2021/01/10 10:49:48;;;;;;;12.68;5.88;;;6.20;98.70;;;;;;4624217;23;20229;-72
2021/01/10 10:52:15;;;;;;;13.63;5.78;;;6.20;98.70;;;;;;4974692;28;21411;-71
2021/01/10 10:54:41;;;;;;;14.93;6.47;;;6.20;98.70;;;;;;4971131;28;20201;-73
2021/01/10 10:57:08;;;;;;;13.57;6.30;;;6.20;98.70;;;;;;4974698;28;20257;-71
2021/01/10 10:59:36;;;;;;;12.80;6.15;;;6.20;98.70;;;;;;4966786;28;20276;-72
2021/01/10 11:02:03;;;;;;;13.80;6.75;;;6.20;98.70;;;;;;4977739;28;20623;-74
2021/01/10 11:04:29;;;;;;;14.25;6.72;;;6.20;98.80;;;;;;4974407;28;20202;-73
2021/01/10 11:06:57;;;;;;;15.02;7.15;;;6.30;98.90;;;;;;4970317;28;20197;-74
2021/01/10 11:09:23;;;;;;;11.77;6.03;;;6.30;98.90;;;;;;4965891;28;20217;-73
2021/01/10 11:11:49;;;;;;;16.00;7.10;;;6.30;98.90;;;;;;4974266;28;20704;-73
2021/01/10 11:14:17;;;;;;;13.52;6.50;;;6.30;98.90;;;;;;4974855;28;20217;-73
2021/01/10 11:16:46;;;;;;;14.75;6.65;;;6.40;99.00;;;;;;4974831;28;20253;-72
2021/01/10 11:19:13;;;;;;;16.02;7.28;;;6.30;99.10;;;;;;4974855;28;20206;-72
2021/01/10 11:21:43;;;;;;;14.07;6.90;;;6.40;99.50;;;;;;4973440;28;20202;-72
2021/01/10 11:24:11;;;;;;;12.95;7.45;;;6.40;99.20;;;;;;4973801;28;20280;-75
2021/01/10 11:26:39;;;;;;;13.75;6.82;;;6.40;99.20;;;;;;4971410;28;20729;-73
2021/01/10 11:29:05;;;;;;;18.75;7.25;;;6.40;99.20;;;;;;4974002;28;20202;-72
2021/01/10 11:31:33;;;;;;;16.35;6.60;;;6.40;99.20;;;;;;4980004;28;20232;-71
2021/01/10 11:34:00;;;;;;;13.60;7.30;;;6.40;99.20;;;;;;4993535;28;20618;-74
2021/01/10 11:36:26;;;;;;;14.45;7.43;;;6.40;99.30;;;;;;4994062;28;20201;-74
2021/01/10 11:38:54;;;;;;;12.40;7.55;;;6.40;99.30;;;;;;4988619;28;20201;-73
2021/01/10 11:41:23;;;;;;;20.52;8.30;;;6.40;99.30;;;;;;4974166;28;20664;-74
2021/01/10 11:43:49;;;;;;;15.45;8.52;;;6.40;99.30;;;;;;4978594;28;20205;-75
2021/01/10 11:46:17;;;;;;;18.52;9.20;;;6.40;99.40;;;;;;4975800;28;20208;-75
2021/01/10 11:48:43;;;;;;;14.82;7.78;;;6.40;99.50;;;;;;4979617;28;20225;-73
2021/01/10 11:51:12;;;;;;;16.80;8.65;;;6.40;99.60;;;;;;4982984;28;20209;-74
2021/01/10 11:53:39;;;;;;;14.05;9.10;;;6.40;99.60;;;;;;4980291;28;20198;-74
2021/01/10 11:56:06;;;;;;;14.55;8.30;;;6.40;99.70;;;;;;4973646;28;20194;-73
2021/01/10 11:58:33;;;;;;;16.65;8.32;;;6.40;99.80;;;;;;4973832;28;20213;-73
2021/01/10 12:01:00;;;;;;;16.88;8.82;;;6.40;99.80;;;;;;4973970;28;20202;-73
2021/01/10 12:03:27;;;;;;;17.20;9.30;;;6.40;99.80;;;;;;4990017;28;22148;-74
2021/01/10 12:05:54;;;;;;;18.20;9.48;;;6.40;99.80;;;;;;4974008;28;20290;-75
2021/01/10 12:08:22;;;;;;;16.65;8.75;;;6.40;99.80;;;;;;4982854;28;20259;-76
2021/01/10 12:10:49;;;;;;;16.80;8.50;;;6.40;99.90;;;;;;4993260;28;20596;-77
2021/01/10 12:13:15;;;;;;;17.38;8.52;;;6.40;99.90;;;;;;4992102;28;20209;-73
2021/01/10 12:15:45;;;;;;;15.98;9.30;;;6.40;99.90;;;;;;4961651;28;20206;-77
2021/01/10 12:18:12;;;;;;;19.02;9.07;;;6.40;99.90;;;;;;4973730;28;20666;-73
2021/01/10 12:20:39;;;;;;;16.55;8.73;;;6.40;99.90;;;;;;4978479;28;20198;-74
2021/01/10 12:23:05;;;;;;;17.17;9.07;;;6.40;99.90;;;;;;4937284;28;20681;-73
2021/01/10 12:25:32;;;;;;;17.42;8.90;;;6.40;99.90;;;;;;4927808;28;20642;-73
2021/01/10 12:27:58;;;;;;;18.10;9.43;;;6.40;99.90;;;;;;4972420;28;20228;-75
2021/01/10 12:30:25;;;;;;;16.33;9.18;;;6.30;99.90;;;;;;4972465;28;20772;-73
2021/01/10 12:32:53;;;;;;;17.88;8.93;;;6.30;99.90;;;;;;4971878;28;20561;-71
2021/01/10 12:35:20;;;;;;;15.68;8.57;;;6.30;99.90;;;;;;4980233;28;20272;-74
2021/01/10 12:37:48;;;;;;;17.10;8.77;;;6.30;99.90;;;;;;4984104;28;20207;-73
2021/01/10 12:40:16;;;;;;;16.42;8.77;;;6.40;99.90;;;;;;4991829;28;20205;-72
2021/01/10 12:42:43;;;;;;;17.13;9.15;;;6.40;99.90;;;;;;4992036;28;20574;-73
2021/01/10 12:45:11;;;;;;;20.67;8.55;;;6.40;99.90;;;;;;4992655;28;20202;-73
2021/01/10 12:47:41;;;;;;;18.60;8.70;;;6.40;99.90;;;;;;4988799;28;20217;-75
2021/01/10 12:50:10;;;;;;;18.35;8.85;;;6.40;99.90;;;;;;4977137;28;20232;-74
2021/01/10 12:52:37;;;;;;;16.52;8.55;;;6.40;99.90;;;;;;4975149;28;20201;-72
2021/01/10 12:55:04;;;;;;;14.65;8.35;;;6.40;99.90;;;;;;4991656;28;20568;-71
2021/01/10 12:57:31;;;;;;;18.27;8.60;;;6.40;99.90;;;;;;4975001;28;20206;-73
2021/01/10 12:59:57;;;;;;;15.82;8.95;;;6.40;99.90;;;;;;4991529;28;20586;-72
2021/01/10 13:02:24;;;;;;;15.52;9.00;;;6.40;99.90;;;;;;4973086;28;20537;-72
2021/01/10 13:04:50;;;;;;;14.70;8.50;;;6.40;99.90;;;;;;4972424;28;20212;-73
2021/01/10 13:07:17;;;;;;;18.10;8.23;;;6.40;99.90;;;;;;4972950;28;20206;-74
2021/01/10 13:09:44;;;;;;;16.38;8.20;;;6.40;99.90;;;;;;4972977;28;20213;-72
2021/01/10 13:12:11;;;;;;;13.88;8.30;;;6.40;99.90;;;;;;4972344;28;20248;-72
2021/01/10 13:14:38;;;;;;;15.18;7.93;;;6.40;99.90;;;;;;4980686;28;20237;-72
2021/01/10 13:17:04;;;;;;;16.00;8.77;;;6.40;99.90;;;;;;4963835;28;20217;-73
2021/01/10 13:19:30;;;;;;;15.23;8.20;;;6.40;99.90;;;;;;4992076;28;20232;-74
2021/01/10 13:21:57;;;;;;;14.93;9.13;;;6.40;99.90;;;;;;4984989;28;20208;-72
2021/01/10 13:24:24;;;;;;;15.02;8.63;;;6.40;99.90;;;;;;4972451;28;20205;-72
2021/01/10 13:26:54;;;;;;;15.75;8.85;;;6.30;99.90;;;;;;4979519;28;20205;-75
2021/01/10 13:29:20;;;;;;;17.00;9.13;;;6.30;99.90;;;;;;4976230;28;20202;-73
2021/01/10 13:31:47;;;;;;;14.43;8.10;;;6.30;99.90;;;;;;4963269;28;20222;-73
2021/01/10 13:34:13;;;;;;;17.73;8.52;;;6.30;99.90;;;;;;4970269;28;20190;-74
2021/01/10 13:36:40;;;;;;;18.48;8.85;;;6.30;99.90;;;;;;4975956;28;20231;-74
2021/01/10 13:39:07;;;;;;;17.35;9.35;;;6.30;99.90;;;;;;4973550;28;20608;-73
2021/01/10 13:41:34;;;;;;;16.30;9.57;;;6.30;99.90;;;;;;4977725;28;20785;-72